sensor_id;sensor_type;location;lat;lon;timestamp;P1;durP1;ratioP1;P2;durP2;ratioP2
64714;SDS011;51144;53.002;6.506;2022-08-25T00:01:46;5.20;;;4.05;;
64714;SDS011;51144;53.002;6.506;2022-08-25T00:04:17;10.60;;;4.05;;
64714;SDS011;51144;53.002;6.506;2022-08-25T00:06:43;6.70;;;4.20;;
64714;SDS011;51144;53.002;6.506;2022-08-25T00:09:11;4.03;;;3.72;;
64714;SDS011;51144;53.002;6.506;2022-08-25T00:11:38;3.95;;;3.47;;
64714;SDS011;51144;53.002;6.506;2022-08-25T00:14:09;6.30;;;3.95;;
64714;SDS011;51144;53.002;6.506;2022-08-25T00:16:37;6.90;;;3.47;;
64714;SDS011;51144;53.002;6.506;2022-08-25T00:19:05;10.10;;;3.85;;
64714;SDS011;51144;53.002;6.506;2022-08-25T00:21:33;5.68;;;3.65;;
64714;SDS011;51144;53.002;6.506;2022-08-25T00:23:59;7.95;;;3.85;;
64714;SDS011;51144;53.002;6.506;2022-08-25T00:26:26;4.43;;;3.40;;
64714;SDS011;51144;53.002;6.506;2022-08-25T00:28:52;10.25;;;3.83;;
64714;SDS011;51144;53.002;6.506;2022-08-25T00:31:19;7.50;;;3.55;;
64714;SDS011;51144;53.002;6.506;2022-08-25T00:33:47;4.35;;;2.63;;
64714;SDS011;51144;53.002;6.506;2022-08-25T00:36:15;6.75;;;2.92;;
64714;SDS011;51144;53.002;6.506;2022-08-25T00:38:42;9.18;;;3.13;;
64714;SDS011;51144;53.002;6.506;2022-08-25T00:41:12;4.68;;;2.90;;
64714;SDS011;51144;53.002;6.506;2022-08-25T00:46:33;6.53;;;2.67;;
64714;SDS011;51144;53.002;6.506;2022-08-25T00:49:03;5.68;;;2.50;;
64714;SDS011;51144;53.002;6.506;2022-08-25T00:51:36;4.03;;;2.50;;
64714;SDS011;51144;53.002;6.506;2022-08-25T00:54:06;4.00;;;2.33;;
64714;SDS011;51144;53.002;6.506;2022-08-25T00:56:36;10.77;;;2.08;;
64714;SDS011;51144;53.002;6.506;2022-08-25T00:59:02;4.72;;;1.88;;
64714;SDS011;51144;53.002;6.506;2022-08-25T01:01:29;4.85;;;1.52;;
64714;SDS011;51144;53.002;6.506;2022-08-25T01:03:55;5.30;;;1.58;;
64714;SDS011;51144;53.002;6.506;2022-08-25T01:06:20;3.10;;;1.48;;
64714;SDS011;51144;53.002;6.506;2022-08-25T01:08:47;4.38;;;1.75;;
64714;SDS011;51144;53.002;6.506;2022-08-25T01:11:13;2.75;;;1.55;;
64714;SDS011;51144;53.002;6.506;2022-08-25T01:13:40;5.00;;;1.75;;
64714;SDS011;51144;53.002;6.506;2022-08-25T01:16:12;4.63;;;1.45;;
64714;SDS011;51144;53.002;6.506;2022-08-25T01:18:43;5.03;;;1.45;;
64714;SDS011;51144;53.002;6.506;2022-08-25T01:21:11;5.03;;;1.35;;
64714;SDS011;51144;53.002;6.506;2022-08-25T01:23:37;2.50;;;0.90;;
64714;SDS011;51144;53.002;6.506;2022-08-25T01:26:05;10.30;;;1.65;;
64714;SDS011;51144;53.002;6.506;2022-08-25T01:28:33;4.65;;;1.75;;
64714;SDS011;51144;53.002;6.506;2022-08-25T01:30:59;1.98;;;1.13;;
64714;SDS011;51144;53.002;6.506;2022-08-25T01:33:25;3.97;;;1.42;;
64714;SDS011;51144;53.002;6.506;2022-08-25T01:35:51;6.35;;;1.30;;
64714;SDS011;51144;53.002;6.506;2022-08-25T01:38:16;6.28;;;0.93;;
64714;SDS011;51144;53.002;6.506;2022-08-25T01:40:44;5.07;;;1.13;;
64714;SDS011;51144;53.002;6.506;2022-08-25T01:43:11;5.43;;;1.30;;
64714;SDS011;51144;53.002;6.506;2022-08-25T01:45:43;6.07;;;1.20;;
64714;SDS011;51144;53.002;6.506;2022-08-25T01:48:13;6.80;;;1.30;;
64714;SDS011;51144;53.002;6.506;2022-08-25T01:50:39;4.57;;;0.77;;
64714;SDS011;51144;53.002;6.506;2022-08-25T01:53:07;2.80;;;1.27;;
64714;SDS011;51144;53.002;6.506;2022-08-25T01:55:52;2.95;;;1.00;;
64714;SDS011;51144;53.002;6.506;2022-08-25T01:58:30;8.57;;;1.10;;
64714;SDS011;51144;53.002;6.506;2022-08-25T02:00:59;3.60;;;0.88;;
64714;SDS011;51144;53.002;6.506;2022-08-25T02:03:27;5.53;;;1.25;;
64714;SDS011;51144;53.002;6.506;2022-08-25T02:05:53;4.30;;;1.05;;
64714;SDS011;51144;53.002;6.506;2022-08-25T02:08:19;3.72;;;1.10;;
64714;SDS011;51144;53.002;6.506;2022-08-25T02:10:47;9.05;;;1.08;;
64714;SDS011;51144;53.002;6.506;2022-08-25T02:13:13;11.55;;;1.17;;
64714;SDS011;51144;53.002;6.506;2022-08-25T02:15:43;2.88;;;0.85;;
64714;SDS011;51144;53.002;6.506;2022-08-25T02:18:11;1.50;;;0.55;;
64714;SDS011;51144;53.002;6.506;2022-08-25T02:20:38;3.28;;;0.82;;
64714;SDS011;51144;53.002;6.506;2022-08-25T02:23:04;2.28;;;0.77;;
64714;SDS011;51144;53.002;6.506;2022-08-25T02:25:30;2.47;;;1.10;;
64714;SDS011;51144;53.002;6.506;2022-08-25T02:27:57;4.20;;;1.00;;
64714;SDS011;51144;53.002;6.506;2022-08-25T02:30:23;4.57;;;0.70;;
64714;SDS011;51144;53.002;6.506;2022-08-25T02:32:50;10.00;;;0.82;;
64714;SDS011;51144;53.002;6.506;2022-08-25T02:35:16;3.33;;;0.85;;
64714;SDS011;51144;53.002;6.506;2022-08-25T02:37:41;3.22;;;1.20;;
64714;SDS011;51144;53.002;6.506;2022-08-25T02:40:07;2.30;;;1.10;;
64714;SDS011;51144;53.002;6.506;2022-08-25T02:42:33;4.07;;;0.88;;
64714;SDS011;51144;53.002;6.506;2022-08-25T02:44:59;4.32;;;0.95;;
64714;SDS011;51144;53.002;6.506;2022-08-25T02:47:25;8.13;;;1.35;;
64714;SDS011;51144;53.002;6.506;2022-08-25T02:49:53;5.22;;;0.85;;
64714;SDS011;51144;53.002;6.506;2022-08-25T02:52:19;5.95;;;0.80;;
64714;SDS011;51144;53.002;6.506;2022-08-25T02:54:45;7.93;;;1.27;;
64714;SDS011;51144;53.002;6.506;2022-08-25T02:57:10;6.82;;;0.98;;
64714;SDS011;51144;53.002;6.506;2022-08-25T02:59:36;2.65;;;0.82;;
64714;SDS011;51144;53.002;6.506;2022-08-25T03:02:12;3.92;;;1.05;;
64714;SDS011;51144;53.002;6.506;2022-08-25T03:04:38;4.57;;;0.80;;
64714;SDS011;51144;53.002;6.506;2022-08-25T03:07:04;3.05;;;0.70;;
64714;SDS011;51144;53.002;6.506;2022-08-25T03:09:30;2.47;;;0.93;;
64714;SDS011;51144;53.002;6.506;2022-08-25T03:11:56;6.55;;;0.80;;
64714;SDS011;51144;53.002;6.506;2022-08-25T03:14:21;2.00;;;1.00;;
64714;SDS011;51144;53.002;6.506;2022-08-25T03:16:47;4.30;;;0.93;;
64714;SDS011;51144;53.002;6.506;2022-08-25T03:19:13;3.35;;;1.33;;
64714;SDS011;51144;53.002;6.506;2022-08-25T03:21:39;5.10;;;0.88;;
64714;SDS011;51144;53.002;6.506;2022-08-25T03:24:04;5.57;;;1.55;;
64714;SDS011;51144;53.002;6.506;2022-08-25T03:26:31;2.55;;;1.13;;
64714;SDS011;51144;53.002;6.506;2022-08-25T03:29:15;1.42;;;0.90;;
64714;SDS011;51144;53.002;6.506;2022-08-25T03:31:42;9.00;;;1.85;;
64714;SDS011;51144;53.002;6.506;2022-08-25T03:34:09;7.22;;;0.98;;
64714;SDS011;51144;53.002;6.506;2022-08-25T03:36:36;6.53;;;0.95;;
64714;SDS011;51144;53.002;6.506;2022-08-25T03:39:02;4.20;;;1.55;;
64714;SDS011;51144;53.002;6.506;2022-08-25T03:41:29;3.15;;;0.60;;
64714;SDS011;51144;53.002;6.506;2022-08-25T03:43:57;4.85;;;0.80;;
64714;SDS011;51144;53.002;6.506;2022-08-25T03:46:33;4.00;;;0.77;;
64714;SDS011;51144;53.002;6.506;2022-08-25T03:49:05;2.38;;;1.02;;
64714;SDS011;51144;53.002;6.506;2022-08-25T03:51:34;3.72;;;0.88;;
64714;SDS011;51144;53.002;6.506;2022-08-25T03:54:04;1.30;;;0.70;;
64714;SDS011;51144;53.002;6.506;2022-08-25T03:56:31;5.15;;;1.20;;
64714;SDS011;51144;53.002;6.506;2022-08-25T03:58:56;5.60;;;0.73;;
64714;SDS011;51144;53.002;6.506;2022-08-25T04:01:23;6.50;;;1.33;;
64714;SDS011;51144;53.002;6.506;2022-08-25T04:03:48;5.57;;;1.15;;
64714;SDS011;51144;53.002;6.506;2022-08-25T04:06:14;5.25;;;1.00;;
64714;SDS011;51144;53.002;6.506;2022-08-25T04:08:41;5.57;;;1.35;;
64714;SDS011;51144;53.002;6.506;2022-08-25T04:11:08;4.80;;;1.25;;
64714;SDS011;51144;53.002;6.506;2022-08-25T04:13:41;3.17;;;1.15;;
64714;SDS011;51144;53.002;6.506;2022-08-25T04:16:13;4.93;;;1.20;;
64714;SDS011;51144;53.002;6.506;2022-08-25T04:18:47;9.25;;;1.77;;
64714;SDS011;51144;53.002;6.506;2022-08-25T04:21:13;4.63;;;1.30;;
64714;SDS011;51144;53.002;6.506;2022-08-25T04:23:41;2.55;;;1.17;;
64714;SDS011;51144;53.002;6.506;2022-08-25T04:26:13;4.78;;;1.30;;
64714;SDS011;51144;53.002;6.506;2022-08-25T04:28:40;2.65;;;0.93;;
64714;SDS011;51144;53.002;6.506;2022-08-25T04:31:09;4.80;;;1.40;;
64714;SDS011;51144;53.002;6.506;2022-08-25T04:33:38;7.63;;;1.10;;
64714;SDS011;51144;53.002;6.506;2022-08-25T04:36:05;5.72;;;1.13;;
64714;SDS011;51144;53.002;6.506;2022-08-25T04:38:32;8.90;;;0.80;;
64714;SDS011;51144;53.002;6.506;2022-08-25T04:40:59;5.50;;;1.27;;
64714;SDS011;51144;53.002;6.506;2022-08-25T04:43:26;2.88;;;1.02;;
64714;SDS011;51144;53.002;6.506;2022-08-25T04:45:51;5.05;;;1.08;;
64714;SDS011;51144;53.002;6.506;2022-08-25T04:48:17;3.75;;;1.15;;
64714;SDS011;51144;53.002;6.506;2022-08-25T04:50:43;5.10;;;1.17;;
64714;SDS011;51144;53.002;6.506;2022-08-25T04:53:10;10.50;;;1.73;;
64714;SDS011;51144;53.002;6.506;2022-08-25T04:55:42;5.18;;;1.13;;
64714;SDS011;51144;53.002;6.506;2022-08-25T04:58:10;2.90;;;1.25;;
64714;SDS011;51144;53.002;6.506;2022-08-25T05:00:36;8.57;;;1.20;;
64714;SDS011;51144;53.002;6.506;2022-08-25T05:03:02;3.97;;;1.50;;
64714;SDS011;51144;53.002;6.506;2022-08-25T05:05:28;6.70;;;1.20;;
64714;SDS011;51144;53.002;6.506;2022-08-25T05:07:54;2.90;;;0.90;;
64714;SDS011;51144;53.002;6.506;2022-08-25T05:10:20;2.88;;;1.33;;
64714;SDS011;51144;53.002;6.506;2022-08-25T05:12:46;5.53;;;1.50;;
64714;SDS011;51144;53.002;6.506;2022-08-25T05:15:11;3.55;;;0.90;;
64714;SDS011;51144;53.002;6.506;2022-08-25T05:17:56;9.40;;;1.90;;
64714;SDS011;51144;53.002;6.506;2022-08-25T05:20:22;3.28;;;1.23;;
64714;SDS011;51144;53.002;6.506;2022-08-25T05:22:48;4.72;;;1.13;;
64714;SDS011;51144;53.002;6.506;2022-08-25T05:25:14;3.85;;;1.40;;
64714;SDS011;51144;53.002;6.506;2022-08-25T05:27:40;5.68;;;1.65;;
64714;SDS011;51144;53.002;6.506;2022-08-25T05:30:07;4.47;;;1.13;;
64714;SDS011;51144;53.002;6.506;2022-08-25T05:32:34;5.32;;;1.23;;
64714;SDS011;51144;53.002;6.506;2022-08-25T05:34:59;6.00;;;1.75;;
64714;SDS011;51144;53.002;6.506;2022-08-25T05:37:25;5.95;;;1.40;;
64714;SDS011;51144;53.002;6.506;2022-08-25T05:39:51;4.10;;;1.23;;
64714;SDS011;51144;53.002;6.506;2022-08-25T05:42:16;4.40;;;1.30;;
64714;SDS011;51144;53.002;6.506;2022-08-25T05:44:45;6.22;;;1.75;;
64714;SDS011;51144;53.002;6.506;2022-08-25T05:47:10;4.88;;;1.27;;
64714;SDS011;51144;53.002;6.506;2022-08-25T05:49:36;7.03;;;1.40;;
64714;SDS011;51144;53.002;6.506;2022-08-25T05:52:01;2.95;;;1.35;;
64714;SDS011;51144;53.002;6.506;2022-08-25T05:54:27;7.80;;;1.33;;
64714;SDS011;51144;53.002;6.506;2022-08-25T05:56:53;3.95;;;1.33;;
64714;SDS011;51144;53.002;6.506;2022-08-25T05:59:19;4.22;;;1.17;;
64714;SDS011;51144;53.002;6.506;2022-08-25T06:01:44;2.15;;;1.10;;
64714;SDS011;51144;53.002;6.506;2022-08-25T06:06:54;2.42;;;1.50;;
64714;SDS011;51144;53.002;6.506;2022-08-25T06:09:20;6.80;;;1.42;;
64714;SDS011;51144;53.002;6.506;2022-08-25T06:11:46;5.45;;;1.50;;
64714;SDS011;51144;53.002;6.506;2022-08-25T06:14:12;4.15;;;1.45;;
64714;SDS011;51144;53.002;6.506;2022-08-25T06:16:39;6.28;;;1.65;;
64714;SDS011;51144;53.002;6.506;2022-08-25T06:19:05;5.82;;;1.50;;
64714;SDS011;51144;53.002;6.506;2022-08-25T06:21:32;6.75;;;1.38;;
64714;SDS011;51144;53.002;6.506;2022-08-25T06:23:58;1.85;;;0.88;;
64714;SDS011;51144;53.002;6.506;2022-08-25T06:26:23;6.57;;;1.58;;
64714;SDS011;51144;53.002;6.506;2022-08-25T06:28:50;5.78;;;1.73;;
64714;SDS011;51144;53.002;6.506;2022-08-25T06:31:16;2.88;;;1.00;;
64714;SDS011;51144;53.002;6.506;2022-08-25T06:33:42;4.05;;;1.73;;
64714;SDS011;51144;53.002;6.506;2022-08-25T06:36:08;3.45;;;1.30;;
64714;SDS011;51144;53.002;6.506;2022-08-25T06:38:33;3.05;;;1.42;;
64714;SDS011;51144;53.002;6.506;2022-08-25T06:41:03;2.75;;;1.35;;
64714;SDS011;51144;53.002;6.506;2022-08-25T06:43:30;5.93;;;1.25;;
64714;SDS011;51144;53.002;6.506;2022-08-25T06:45:57;6.07;;;1.20;;
64714;SDS011;51144;53.002;6.506;2022-08-25T06:48:32;3.75;;;1.35;;
64714;SDS011;51144;53.002;6.506;2022-08-25T06:51:04;2.75;;;1.23;;
64714;SDS011;51144;53.002;6.506;2022-08-25T06:53:31;6.90;;;1.90;;
64714;SDS011;51144;53.002;6.506;2022-08-25T06:55:57;6.57;;;1.48;;
64714;SDS011;51144;53.002;6.506;2022-08-25T06:58:25;5.45;;;1.10;;
64714;SDS011;51144;53.002;6.506;2022-08-25T07:00:51;3.90;;;1.65;;
64714;SDS011;51144;53.002;6.506;2022-08-25T07:03:17;4.10;;;1.52;;
64714;SDS011;51144;53.002;6.506;2022-08-25T07:05:50;7.53;;;1.33;;
64714;SDS011;51144;53.002;6.506;2022-08-25T07:10:42;4.68;;;1.58;;
64714;SDS011;51144;53.002;6.506;2022-08-25T07:13:10;4.70;;;2.33;;
64714;SDS011;51144;53.002;6.506;2022-08-25T07:15:37;5.05;;;1.48;;
64714;SDS011;51144;53.002;6.506;2022-08-25T07:18:04;5.95;;;1.50;;
64714;SDS011;51144;53.002;6.506;2022-08-25T07:20:30;6.75;;;1.85;;
64714;SDS011;51144;53.002;6.506;2022-08-25T07:22:56;3.95;;;1.45;;
64714;SDS011;51144;53.002;6.506;2022-08-25T07:25:22;3.47;;;1.67;;
64714;SDS011;51144;53.002;6.506;2022-08-25T07:27:48;4.13;;;1.58;;
64714;SDS011;51144;53.002;6.506;2022-08-25T07:30:13;10.10;;;1.85;;
64714;SDS011;51144;53.002;6.506;2022-08-25T07:32:41;7.78;;;2.15;;
64714;SDS011;51144;53.002;6.506;2022-08-25T07:35:07;10.02;;;1.85;;
64714;SDS011;51144;53.002;6.506;2022-08-25T07:37:44;4.88;;;1.55;;
64714;SDS011;51144;53.002;6.506;2022-08-25T07:40:12;9.30;;;2.17;;
64714;SDS011;51144;53.002;6.506;2022-08-25T07:42:41;3.55;;;1.80;;
64714;SDS011;51144;53.002;6.506;2022-08-25T07:45:07;7.90;;;1.45;;
64714;SDS011;51144;53.002;6.506;2022-08-25T07:47:34;4.25;;;1.50;;
64714;SDS011;51144;53.002;6.506;2022-08-25T07:50:00;2.97;;;1.60;;
64714;SDS011;51144;53.002;6.506;2022-08-25T07:52:26;4.55;;;1.88;;
64714;SDS011;51144;53.002;6.506;2022-08-25T07:54:52;3.75;;;1.60;;
64714;SDS011;51144;53.002;6.506;2022-08-25T07:57:19;11.52;;;1.73;;
64714;SDS011;51144;53.002;6.506;2022-08-25T07:59:46;8.45;;;1.95;;
64714;SDS011;51144;53.002;6.506;2022-08-25T08:02:12;5.35;;;1.58;;
64714;SDS011;51144;53.002;6.506;2022-08-25T08:04:38;7.95;;;2.03;;
64714;SDS011;51144;53.002;6.506;2022-08-25T08:07:04;6.15;;;1.80;;
64714;SDS011;51144;53.002;6.506;2022-08-25T08:09:30;5.82;;;2.03;;
64714;SDS011;51144;53.002;6.506;2022-08-25T08:11:56;4.43;;;1.90;;
64714;SDS011;51144;53.002;6.506;2022-08-25T08:14:22;3.47;;;1.33;;
64714;SDS011;51144;53.002;6.506;2022-08-25T08:16:48;3.67;;;1.60;;
64714;SDS011;51144;53.002;6.506;2022-08-25T08:19:13;8.85;;;1.40;;
64714;SDS011;51144;53.002;6.506;2022-08-25T08:21:40;6.82;;;2.45;;
64714;SDS011;51144;53.002;6.506;2022-08-25T08:24:06;7.25;;;1.80;;
64714;SDS011;51144;53.002;6.506;2022-08-25T08:26:32;3.60;;;1.95;;
64714;SDS011;51144;53.002;6.506;2022-08-25T08:28:58;4.18;;;1.73;;
64714;SDS011;51144;53.002;6.506;2022-08-25T08:31:24;6.80;;;1.40;;
64714;SDS011;51144;53.002;6.506;2022-08-25T08:33:51;7.63;;;1.75;;
64714;SDS011;51144;53.002;6.506;2022-08-25T08:36:19;2.72;;;1.30;;
64714;SDS011;51144;53.002;6.506;2022-08-25T08:38:45;5.63;;;1.83;;
64714;SDS011;51144;53.002;6.506;2022-08-25T08:41:38;4.30;;;1.77;;
64714;SDS011;51144;53.002;6.506;2022-08-25T08:44:26;3.80;;;1.23;;
64714;SDS011;51144;53.002;6.506;2022-08-25T08:47:02;5.97;;;1.27;;
64714;SDS011;51144;53.002;6.506;2022-08-25T08:55:27;6.68;;;1.45;;
64714;SDS011;51144;53.002;6.506;2022-08-25T08:57:57;5.30;;;1.27;;
64714;SDS011;51144;53.002;6.506;2022-08-25T09:00:24;10.32;;;1.85;;
64714;SDS011;51144;53.002;6.506;2022-08-25T09:02:55;5.03;;;1.05;;
64714;SDS011;51144;53.002;6.506;2022-08-25T09:05:25;3.38;;;1.15;;
64714;SDS011;51144;53.002;6.506;2022-08-25T09:07:54;6.55;;;0.95;;
64714;SDS011;51144;53.002;6.506;2022-08-25T09:10:23;3.58;;;1.23;;
64714;SDS011;51144;53.002;6.506;2022-08-25T09:21:23;2.30;;;1.10;;
64714;SDS011;51144;53.002;6.506;2022-08-25T09:30:12;7.20;;;1.73;;
64714;SDS011;51144;53.002;6.506;2022-08-25T09:32:39;2.55;;;0.93;;
64714;SDS011;51144;53.002;6.506;2022-08-25T09:35:09;3.00;;;0.80;;
64714;SDS011;51144;53.002;6.506;2022-08-25T09:38:04;4.80;;;1.15;;
64714;SDS011;51144;53.002;6.506;2022-08-25T09:40:40;2.30;;;1.00;;
64714;SDS011;51144;53.002;6.506;2022-08-25T09:46:12;2.33;;;0.82;;
64714;SDS011;51144;53.002;6.506;2022-08-25T09:48:47;2.20;;;0.88;;
64714;SDS011;51144;53.002;6.506;2022-08-25T09:56:29;5.93;;;0.73;;
64714;SDS011;51144;53.002;6.506;2022-08-25T10:02:00;4.75;;;0.90;;
64714;SDS011;51144;53.002;6.506;2022-08-25T10:04:44;4.20;;;1.00;;
64714;SDS011;51144;53.002;6.506;2022-08-25T10:07:27;8.13;;;0.88;;
64714;SDS011;51144;53.002;6.506;2022-08-25T10:10:05;2.20;;;0.70;;
64714;SDS011;51144;53.002;6.506;2022-08-25T10:12:47;2.83;;;0.75;;
64714;SDS011;51144;53.002;6.506;2022-08-25T10:15:20;2.10;;;0.60;;
64714;SDS011;51144;53.002;6.506;2022-08-25T10:17:51;4.57;;;0.70;;
64714;SDS011;51144;53.002;6.506;2022-08-25T10:20:21;6.05;;;0.70;;
64714;SDS011;51144;53.002;6.506;2022-08-25T10:22:54;2.80;;;0.80;;
64714;SDS011;51144;53.002;6.506;2022-08-25T10:25:42;7.55;;;0.90;;
64714;SDS011;51144;53.002;6.506;2022-08-25T10:36:38;1.42;;;0.85;;
64714;SDS011;51144;53.002;6.506;2022-08-25T10:39:15;4.88;;;0.95;;
64714;SDS011;51144;53.002;6.506;2022-08-25T10:41:56;4.07;;;1.00;;
64714;SDS011;51144;53.002;6.506;2022-08-25T10:44:41;4.82;;;1.08;;
64714;SDS011;51144;53.002;6.506;2022-08-25T10:50:42;3.60;;;0.80;;
64714;SDS011;51144;53.002;6.506;2022-08-25T10:53:22;2.50;;;0.52;;
64714;SDS011;51144;53.002;6.506;2022-08-25T10:55:59;4.30;;;0.90;;
64714;SDS011;51144;53.002;6.506;2022-08-25T11:01:37;4.25;;;0.70;;
64714;SDS011;51144;53.002;6.506;2022-08-25T11:07:22;3.42;;;0.80;;
64714;SDS011;51144;53.002;6.506;2022-08-25T11:09:54;7.15;;;1.02;;
64714;SDS011;51144;53.002;6.506;2022-08-25T11:15:22;4.50;;;0.82;;
64714;SDS011;51144;53.002;6.506;2022-08-25T11:17:56;2.50;;;0.85;;
64714;SDS011;51144;53.002;6.506;2022-08-25T11:20:40;5.82;;;0.90;;
64714;SDS011;51144;53.002;6.506;2022-08-25T11:23:14;4.53;;;1.20;;
64714;SDS011;51144;53.002;6.506;2022-08-25T11:26:09;8.77;;;0.88;;
64714;SDS011;51144;53.002;6.506;2022-08-25T11:28:48;4.60;;;0.52;;
64714;SDS011;51144;53.002;6.506;2022-08-25T11:31:15;3.33;;;1.05;;
64714;SDS011;51144;53.002;6.506;2022-08-25T11:33:42;1.67;;;0.70;;
64714;SDS011;51144;53.002;6.506;2022-08-25T11:36:14;6.72;;;1.20;;
64714;SDS011;51144;53.002;6.506;2022-08-25T11:38:57;6.72;;;1.52;;
64714;SDS011;51144;53.002;6.506;2022-08-25T11:49:48;2.88;;;1.10;;
64714;SDS011;51144;53.002;6.506;2022-08-25T12:00:40;4.38;;;0.85;;
64714;SDS011;51144;53.002;6.506;2022-08-25T12:27:11;5.43;;;1.00;;
64714;SDS011;51144;53.002;6.506;2022-08-25T12:37:54;3.47;;;0.80;;
64714;SDS011;51144;53.002;6.506;2022-08-25T12:40:31;5.25;;;0.40;;
64714;SDS011;51144;53.002;6.506;2022-08-25T12:43:24;5.25;;;0.63;;
64714;SDS011;51144;53.002;6.506;2022-08-25T12:45:54;5.10;;;0.80;;
64714;SDS011;51144;53.002;6.506;2022-08-25T12:48:57;4.40;;;0.60;;
64714;SDS011;51144;53.002;6.506;2022-08-25T12:56:52;4.00;;;0.93;;
64714;SDS011;51144;53.002;6.506;2022-08-25T13:10:24;3.78;;;0.75;;
64714;SDS011;51144;53.002;6.506;2022-08-25T13:16:17;5.32;;;0.82;;
64714;SDS011;51144;53.002;6.506;2022-08-25T13:18:44;1.73;;;1.05;;
64714;SDS011;51144;53.002;6.506;2022-08-25T13:21:15;1.77;;;0.77;;
64714;SDS011;51144;53.002;6.506;2022-08-25T13:23:49;5.75;;;1.20;;
64714;SDS011;51144;53.002;6.506;2022-08-25T13:27:01;3.08;;;0.85;;
64714;SDS011;51144;53.002;6.506;2022-08-25T13:31:33;5.55;;;1.35;;
64714;SDS011;51144;53.002;6.506;2022-08-25T13:34:06;3.08;;;0.70;;
64714;SDS011;51144;53.002;6.506;2022-08-25T13:36:45;2.72;;;0.80;;
64714;SDS011;51144;53.002;6.506;2022-08-25T13:39:31;10.98;;;0.90;;
64714;SDS011;51144;53.002;6.506;2022-08-25T13:41:58;2.25;;;1.05;;
64714;SDS011;51144;53.002;6.506;2022-08-25T13:44:25;5.03;;;0.93;;
64714;SDS011;51144;53.002;6.506;2022-08-25T13:47:11;7.32;;;0.73;;
64714;SDS011;51144;53.002;6.506;2022-08-25T13:49:40;1.98;;;0.73;;
64714;SDS011;51144;53.002;6.506;2022-08-25T13:52:16;4.90;;;0.93;;
64714;SDS011;51144;53.002;6.506;2022-08-25T13:54:56;13.98;;;1.58;;
64714;SDS011;51144;53.002;6.506;2022-08-25T13:57:25;4.25;;;1.00;;
64714;SDS011;51144;53.002;6.506;2022-08-25T13:59:54;2.72;;;1.00;;
64714;SDS011;51144;53.002;6.506;2022-08-25T14:05:10;3.03;;;0.98;;
64714;SDS011;51144;53.002;6.506;2022-08-25T14:07:38;3.83;;;0.93;;
64714;SDS011;51144;53.002;6.506;2022-08-25T14:10:06;3.20;;;1.25;;
64714;SDS011;51144;53.002;6.506;2022-08-25T14:13:05;2.33;;;0.82;;
64714;SDS011;51144;53.002;6.506;2022-08-25T14:15:40;3.78;;;1.23;;
64714;SDS011;51144;53.002;6.506;2022-08-25T14:18:09;5.40;;;1.05;;
64714;SDS011;51144;53.002;6.506;2022-08-25T14:20:37;5.57;;;1.65;;
64714;SDS011;51144;53.002;6.506;2022-08-25T14:23:09;4.50;;;1.23;;
64714;SDS011;51144;53.002;6.506;2022-08-25T14:25:39;6.20;;;1.10;;
64714;SDS011;51144;53.002;6.506;2022-08-25T14:28:07;4.50;;;0.82;;
64714;SDS011;51144;53.002;6.506;2022-08-25T14:30:39;3.75;;;1.15;;
64714;SDS011;51144;53.002;6.506;2022-08-25T14:33:16;2.33;;;0.93;;
64714;SDS011;51144;53.002;6.506;2022-08-25T14:35:46;12.20;;;3.03;;
64714;SDS011;51144;53.002;6.506;2022-08-25T14:38:15;3.20;;;1.27;;
64714;SDS011;51144;53.002;6.506;2022-08-25T14:40:41;10.13;;;1.60;;
64714;SDS011;51144;53.002;6.506;2022-08-25T14:43:08;2.85;;;0.88;;
64714;SDS011;51144;53.002;6.506;2022-08-25T14:45:39;4.80;;;1.02;;
64714;SDS011;51144;53.002;6.506;2022-08-25T14:48:07;3.63;;;0.85;;
64714;SDS011;51144;53.002;6.506;2022-08-25T14:50:37;5.07;;;1.10;;
64714;SDS011;51144;53.002;6.506;2022-08-25T14:53:03;2.95;;;0.90;;
64714;SDS011;51144;53.002;6.506;2022-08-25T14:55:33;4.25;;;1.10;;
64714;SDS011;51144;53.002;6.506;2022-08-25T14:57:58;7.13;;;1.38;;
64714;SDS011;51144;53.002;6.506;2022-08-25T15:00:24;5.38;;;1.25;;
64714;SDS011;51144;53.002;6.506;2022-08-25T15:02:50;5.47;;;2.13;;
64714;SDS011;51144;53.002;6.506;2022-08-25T15:05:17;6.82;;;0.90;;
64714;SDS011;51144;53.002;6.506;2022-08-25T15:07:50;1.33;;;1.00;;
64714;SDS011;51144;53.002;6.506;2022-08-25T15:10:34;4.22;;;1.10;;
64714;SDS011;51144;53.002;6.506;2022-08-25T15:13:00;4.25;;;1.33;;
64714;SDS011;51144;53.002;6.506;2022-08-25T15:15:25;10.65;;;2.28;;
64714;SDS011;51144;53.002;6.506;2022-08-25T15:17:54;20.67;;;2.95;;
64714;SDS011;51144;53.002;6.506;2022-08-25T15:20:20;2.10;;;1.33;;
64714;SDS011;51144;53.002;6.506;2022-08-25T15:22:45;2.95;;;1.17;;
64714;SDS011;51144;53.002;6.506;2022-08-25T15:25:12;4.22;;;1.00;;
64714;SDS011;51144;53.002;6.506;2022-08-25T15:27:38;2.47;;;1.23;;
64714;SDS011;51144;53.002;6.506;2022-08-25T15:30:05;7.88;;;1.67;;
64714;SDS011;51144;53.002;6.506;2022-08-25T15:32:31;3.75;;;1.13;;
64714;SDS011;51144;53.002;6.506;2022-08-25T15:34:57;2.85;;;1.10;;
64714;SDS011;51144;53.002;6.506;2022-08-25T15:37:23;7.07;;;1.45;;
64714;SDS011;51144;53.002;6.506;2022-08-25T15:39:49;3.03;;;1.90;;
64714;SDS011;51144;53.002;6.506;2022-08-25T15:42:15;2.10;;;1.20;;
64714;SDS011;51144;53.002;6.506;2022-08-25T15:44:40;4.70;;;0.90;;
64714;SDS011;51144;53.002;6.506;2022-08-25T15:47:07;3.80;;;0.88;;
64714;SDS011;51144;53.002;6.506;2022-08-25T15:49:33;4.15;;;0.80;;
64714;SDS011;51144;53.002;6.506;2022-08-25T15:51:59;4.00;;;2.05;;
64714;SDS011;51144;53.002;6.506;2022-08-25T15:54:25;3.88;;;1.13;;
64714;SDS011;51144;53.002;6.506;2022-08-25T15:56:52;6.00;;;1.55;;
64714;SDS011;51144;53.002;6.506;2022-08-25T15:59:19;1.90;;;0.90;;
64714;SDS011;51144;53.002;6.506;2022-08-25T16:01:44;6.15;;;1.40;;
64714;SDS011;51144;53.002;6.506;2022-08-25T16:04:10;2.58;;;1.25;;
64714;SDS011;51144;53.002;6.506;2022-08-25T16:06:56;2.35;;;1.08;;
64714;SDS011;51144;53.002;6.506;2022-08-25T16:09:24;2.20;;;1.23;;
64714;SDS011;51144;53.002;6.506;2022-08-25T16:11:49;3.30;;;1.20;;
64714;SDS011;51144;53.002;6.506;2022-08-25T16:14:15;3.80;;;0.88;;
64714;SDS011;51144;53.002;6.506;2022-08-25T16:16:42;3.78;;;0.82;;
64714;SDS011;51144;53.002;6.506;2022-08-25T16:19:07;4.30;;;0.70;;
64714;SDS011;51144;53.002;6.506;2022-08-25T16:21:33;6.30;;;1.20;;
64714;SDS011;51144;53.002;6.506;2022-08-25T16:24:01;6.40;;;1.05;;
64714;SDS011;51144;53.002;6.506;2022-08-25T16:26:29;3.20;;;1.45;;
64714;SDS011;51144;53.002;6.506;2022-08-25T16:28:55;1.52;;;0.75;;
64714;SDS011;51144;53.002;6.506;2022-08-25T16:31:21;3.85;;;0.88;;
64714;SDS011;51144;53.002;6.506;2022-08-25T16:33:48;4.90;;;0.75;;
64714;SDS011;51144;53.002;6.506;2022-08-25T16:36:17;2.88;;;0.70;;
64714;SDS011;51144;53.002;6.506;2022-08-25T16:38:45;1.13;;;0.77;;
64714;SDS011;51144;53.002;6.506;2022-08-25T16:41:12;1.60;;;0.77;;
64714;SDS011;51144;53.002;6.506;2022-08-25T16:43:43;3.30;;;0.93;;
64714;SDS011;51144;53.002;6.506;2022-08-25T16:46:10;1.90;;;0.80;;
64714;SDS011;51144;53.002;6.506;2022-08-25T16:48:36;4.07;;;1.13;;
64714;SDS011;51144;53.002;6.506;2022-08-25T16:51:06;3.28;;;1.08;;
64714;SDS011;51144;53.002;6.506;2022-08-25T16:53:43;2.97;;;0.98;;
64714;SDS011;51144;53.002;6.506;2022-08-25T16:56:27;3.67;;;1.50;;
64714;SDS011;51144;53.002;6.506;2022-08-25T16:58:54;5.43;;;1.48;;
64714;SDS011;51144;53.002;6.506;2022-08-25T17:01:21;2.03;;;1.38;;
64714;SDS011;51144;53.002;6.506;2022-08-25T17:03:49;6.90;;;1.25;;
64714;SDS011;51144;53.002;6.506;2022-08-25T17:06:16;2.50;;;0.90;;
64714;SDS011;51144;53.002;6.506;2022-08-25T17:08:42;3.47;;;1.08;;
64714;SDS011;51144;53.002;6.506;2022-08-25T17:13:38;1.92;;;1.08;;
64714;SDS011;51144;53.002;6.506;2022-08-25T17:16:06;2.70;;;1.38;;
64714;SDS011;51144;53.002;6.506;2022-08-25T17:18:32;6.40;;;2.92;;